Alpine Village, Colorado
Current Conditions -  °F | °C
As of 11:14 PM on Friday 24 Oct 2014 (Local Time) from K7BM Reporting Station
Clear Clear  
Wind Chill: 52°   Ceiling: Unl
Heat Index: 52°   Visibility: 10mi
Dew Point: -4°   Wind: 5mph
Humidity: 10%   Direction: 330°NNW
Pressure: 30.53"   Gusts: NA
Location:  38.7194°N, 106.276°W
Report Text: K7BM 250514Z AUTO 33004KT 10SM CLR 11/M20 A3053 RMK AO2
Loading
Personal Weather Stations






























Interactive Weather Map
Tropical Storm Tracking
New forecast layout! Learn more

10-Day Weather Forecast

Advertisements
Track Severe Weather on mobile